sensor_id;sensor_type;location;lat;lon;timestamp;pressure;altitude;pressure_sealevel;temperature;humidity
26043;BME280;13818;52.156;5.382;2022-07-11T00:02:18;102155.34;;;18.29;100.00
26043;BME280;13818;52.156;5.382;2022-07-11T00:04:46;102152.03;;;18.24;100.00
26043;BME280;13818;52.156;5.382;2022-07-11T00:07:14;102144.03;;;18.23;100.00
26043;BME280;13818;52.156;5.382;2022-07-11T00:09:41;102151.34;;;18.20;100.00
26043;BME280;13818;52.156;5.382;2022-07-11T00:12:08;102161.13;;;18.23;100.00
26043;BME280;13818;52.156;5.382;2022-07-11T00:14:36;102153.63;;;18.12;100.00
26043;BME280;13818;52.156;5.382;2022-07-11T00:17:05;102153.72;;;18.11;100.00
26043;BME280;13818;52.156;5.382;2022-07-11T00:19:31;102155.28;;;18.15;100.00
26043;BME280;13818;52.156;5.382;2022-07-11T00:21:59;102155.03;;;18.19;100.00
26043;BME280;13818;52.156;5.382;2022-07-11T00:24:26;102150.47;;;18.20;100.00
26043;BME280;13818;52.156;5.382;2022-07-11T00:26:52;102156.59;;;18.08;100.00
26043;BME280;13818;52.156;5.382;2022-07-11T00:29:19;102145.44;;;18.14;100.00
26043;BME280;13818;52.156;5.382;2022-07-11T00:31:45;102148.59;;;18.06;100.00
26043;BME280;13818;52.156;5.382;2022-07-11T00:34:12;102151.03;;;18.11;100.00
26043;BME280;13818;52.156;5.382;2022-07-11T00:36:40;102147.44;;;18.10;100.00
26043;BME280;13818;52.156;5.382;2022-07-11T00:39:07;102151.28;;;18.06;100.00
26043;BME280;13818;52.156;5.382;2022-07-11T00:41:34;102148.78;;;18.03;100.00
26043;BME280;13818;52.156;5.382;2022-07-11T00:44:01;102149.38;;;18.08;100.00
26043;BME280;13818;52.156;5.382;2022-07-11T00:46:29;102150.84;;;17.98;100.00
26043;BME280;13818;52.156;5.382;2022-07-11T00:48:56;102144.59;;;17.97;100.00
26043;BME280;13818;52.156;5.382;2022-07-11T00:51:23;102143.94;;;17.92;100.00
26043;BME280;13818;52.156;5.382;2022-07-11T00:53:52;102146.41;;;17.97;100.00
26043;BME280;13818;52.156;5.382;2022-07-11T00:56:22;102144.19;;;17.87;100.00
26043;BME280;13818;52.156;5.382;2022-07-11T00:58:48;102136.38;;;17.99;100.00
26043;BME280;13818;52.156;5.382;2022-07-11T01:01:15;102136.69;;;17.94;100.00
26043;BME280;13818;52.156;5.382;2022-07-11T01:03:42;102133.97;;;17.94;100.00
26043;BME280;13818;52.156;5.382;2022-07-11T01:06:09;102144.19;;;17.87;100.00
26043;BME280;13818;52.156;5.382;2022-07-11T01:08:37;102146.38;;;17.81;100.00
26043;BME280;13818;52.156;5.382;2022-07-11T01:11:05;102138.59;;;18.08;100.00
26043;BME280;13818;52.156;5.382;2022-07-11T01:13:35;102142.69;;;17.99;100.00
26043;BME280;13818;52.156;5.382;2022-07-11T01:16:09;102145.28;;;18.01;100.00
26043;BME280;13818;52.156;5.382;2022-07-11T01:18:35;102142.84;;;17.96;100.00
26043;BME280;13818;52.156;5.382;2022-07-11T01:21:10;102141.19;;;17.94;100.00
26043;BME280;13818;52.156;5.382;2022-07-11T01:23:42;102145.53;;;17.96;100.00
26043;BME280;13818;52.156;5.382;2022-07-11T01:26:09;102145.53;;;17.96;100.00
26043;BME280;13818;52.156;5.382;2022-07-11T01:28:35;102152.03;;;17.92;100.00
26043;BME280;13818;52.156;5.382;2022-07-11T01:31:02;102148.38;;;17.93;100.00
26043;BME280;13818;52.156;5.382;2022-07-11T01:33:31;102143.00;;;17.93;100.00
26043;BME280;13818;52.156;5.382;2022-07-11T01:35:57;102152.69;;;17.97;100.00
26043;BME280;13818;52.156;5.382;2022-07-11T01:38:25;102151.25;;;17.90;100.00
26043;BME280;13818;52.156;5.382;2022-07-11T01:40:53;102150.13;;;18.10;100.00
26043;BME280;13818;52.156;5.382;2022-07-11T01:43:19;102148.53;;;17.90;100.00
26043;BME280;13818;52.156;5.382;2022-07-11T01:45:46;102146.72;;;17.91;100.00
26043;BME280;13818;52.156;5.382;2022-07-11T01:48:13;102147.69;;;17.89;100.00
26043;BME280;13818;52.156;5.382;2022-07-11T01:50:40;102149.06;;;17.81;100.00
26043;BME280;13818;52.156;5.382;2022-07-11T01:53:07;102148.78;;;18.03;100.00
26043;BME280;13818;52.156;5.382;2022-07-11T01:55:33;102151.97;;;17.94;100.00
26043;BME280;13818;52.156;5.382;2022-07-11T01:58:01;102136.59;;;17.96;100.00
26043;BME280;13818;52.156;5.382;2022-07-11T02:00:27;102152.56;;;17.83;100.00
26043;BME280;13818;52.156;5.382;2022-07-11T02:02:54;102137.69;;;17.92;100.00
26043;BME280;13818;52.156;5.382;2022-07-11T02:05:21;102143.69;;;17.81;100.00
26043;BME280;13818;52.156;5.382;2022-07-11T02:07:47;102147.16;;;17.83;100.00
26043;BME280;13818;52.156;5.382;2022-07-11T02:10:32;102140.28;;;17.77;100.00
26043;BME280;13818;52.156;5.382;2022-07-11T02:13:00;102132.28;;;17.76;100.00
26043;BME280;13818;52.156;5.382;2022-07-11T02:15:28;102140.28;;;17.77;100.00
26043;BME280;13818;52.156;5.382;2022-07-11T02:17:54;102137.06;;;17.86;100.00
26043;BME280;13818;52.156;5.382;2022-07-11T02:20:22;102138.53;;;17.76;100.00
26043;BME280;13818;52.156;5.382;2022-07-11T02:22:49;102139.47;;;17.75;100.00
26043;BME280;13818;52.156;5.382;2022-07-11T02:25:15;102130.63;;;17.73;100.00
26043;BME280;13818;52.156;5.382;2022-07-11T02:27:42;102135.59;;;17.81;100.00
26043;BME280;13818;52.156;5.382;2022-07-11T02:30:10;102133.06;;;17.78;100.00
26043;BME280;13818;52.156;5.382;2022-07-11T02:32:37;102136.78;;;17.75;100.00
26043;BME280;13818;52.156;5.382;2022-07-11T02:35:05;102130.78;;;17.70;100.00
26043;BME280;13818;52.156;5.382;2022-07-11T02:37:31;102128.97;;;17.70;100.00
26043;BME280;13818;52.156;5.382;2022-07-11T02:39:58;102129.75;;;17.72;100.00
26043;BME280;13818;52.156;5.382;2022-07-11T02:42:24;102137.16;;;17.69;100.00
26043;BME280;13818;52.156;5.382;2022-07-11T02:44:51;102128.44;;;17.80;100.00
26043;BME280;13818;52.156;5.382;2022-07-11T02:47:19;102124.63;;;17.84;100.00
26043;BME280;13818;52.156;5.382;2022-07-11T02:49:45;102125.59;;;17.83;100.00
26043;BME280;13818;52.156;5.382;2022-07-11T02:52:13;102122.00;;;17.82;100.00
26043;BME280;13818;52.156;5.382;2022-07-11T02:54:40;102124.34;;;17.72;100.00
26043;BME280;13818;52.156;5.382;2022-07-11T02:57:06;102133.06;;;17.62;100.00
26043;BME280;13818;52.156;5.382;2022-07-11T02:59:33;102135.84;;;17.60;100.00
26043;BME280;13818;52.156;5.382;2022-07-11T03:01:59;102134.47;;;17.69;100.00
26043;BME280;13818;52.156;5.382;2022-07-11T03:04:31;102134.88;;;17.77;100.00
26043;BME280;13818;52.156;5.382;2022-07-11T03:06:57;102133.31;;;17.73;100.00
26043;BME280;13818;52.156;5.382;2022-07-11T03:09:24;102139.84;;;17.69;100.00
26043;BME280;13818;52.156;5.382;2022-07-11T03:11:51;102141.56;;;17.70;100.00
26043;BME280;13818;52.156;5.382;2022-07-11T03:14:17;102139.44;;;17.77;100.00
26043;BME280;13818;52.156;5.382;2022-07-11T03:16:44;102141.41;;;17.73;100.00
26043;BME280;13818;52.156;5.382;2022-07-11T03:19:10;102142.28;;;17.73;100.00
26043;BME280;13818;52.156;5.382;2022-07-11T03:21:38;102145.50;;;17.64;100.00
26043;BME280;13818;52.156;5.382;2022-07-11T03:24:05;102141.66;;;17.68;100.00
26043;BME280;13818;52.156;5.382;2022-07-11T03:26:32;102146.63;;;17.60;100.00
26043;BME280;13818;52.156;5.382;2022-07-11T03:28:58;102149.47;;;17.57;100.00
26043;BME280;13818;52.156;5.382;2022-07-11T03:31:25;102142.44;;;17.54;100.00
26043;BME280;13818;52.156;5.382;2022-07-11T03:33:51;102146.16;;;17.52;100.00
26043;BME280;13818;52.156;5.382;2022-07-11T03:36:18;102150.28;;;17.59;100.00
26043;BME280;13818;52.156;5.382;2022-07-11T03:38:45;102150.28;;;17.59;100.00
26043;BME280;13818;52.156;5.382;2022-07-11T03:41:12;102153.13;;;17.56;100.00
26043;BME280;13818;52.156;5.382;2022-07-11T03:43:38;102148.63;;;17.56;100.00
26043;BME280;13818;52.156;5.382;2022-07-11T03:46:05;102145.47;;;17.48;100.00
26043;BME280;13818;52.156;5.382;2022-07-11T03:48:32;102142.00;;;17.46;100.00
26043;BME280;13818;52.156;5.382;2022-07-11T03:50:58;102146.69;;;17.43;100.00
26043;BME280;13818;52.156;5.382;2022-07-11T03:53:25;102145.66;;;17.45;100.00
26043;BME280;13818;52.156;5.382;2022-07-11T03:55:52;102146.75;;;17.41;100.00
26043;BME280;13818;52.156;5.382;2022-07-11T03:58:19;102152.78;;;17.46;100.00
26043;BME280;13818;52.156;5.382;2022-07-11T04:00:46;102140.97;;;17.49;100.00
26043;BME280;13818;52.156;5.382;2022-07-11T04:03:12;102149.09;;;17.47;100.00
26043;BME280;13818;52.156;5.382;2022-07-11T04:05:38;102152.78;;;17.46;100.00
26043;BME280;13818;52.156;5.382;2022-07-11T04:08:06;102155.97;;;17.37;100.00
26043;BME280;13818;52.156;5.382;2022-07-11T04:10:32;102151.50;;;17.36;100.00
26043;BME280;13818;52.156;5.382;2022-07-11T04:13:00;102157.31;;;17.28;100.00
26043;BME280;13818;52.156;5.382;2022-07-11T04:15:26;102148.13;;;17.32;100.00
26043;BME280;13818;52.156;5.382;2022-07-11T04:17:53;102155.19;;;17.35;100.00
26043;BME280;13818;52.156;5.382;2022-07-11T04:20:20;102148.13;;;17.32;100.00
26043;BME280;13818;52.156;5.382;2022-07-11T04:22:46;102160.56;;;17.35;100.00
26043;BME280;13818;52.156;5.382;2022-07-11T04:25:12;102157.59;;;17.39;100.00
26043;BME280;13818;52.156;5.382;2022-07-11T04:27:39;102162.28;;;17.36;100.00
26043;BME280;13818;52.156;5.382;2022-07-11T04:30:08;102164.22;;;17.34;100.00
26043;BME280;13818;52.156;5.382;2022-07-11T04:32:34;102155.34;;;17.32;100.00
26043;BME280;13818;52.156;5.382;2022-07-11T04:35:01;102155.25;;;17.33;100.00
26043;BME280;13818;52.156;5.382;2022-07-11T04:37:27;102154.91;;;17.39;100.00
26043;BME280;13818;52.156;5.382;2022-07-11T04:39:54;102152.94;;;17.43;100.00
26043;BME280;13818;52.156;5.382;2022-07-11T04:42:20;102146.75;;;17.41;100.00
26043;BME280;13818;52.156;5.382;2022-07-11T04:44:48;102146.75;;;17.41;100.00
26043;BME280;13818;52.156;5.382;2022-07-11T04:47:15;102144.22;;;17.38;100.00
26043;BME280;13818;52.156;5.382;2022-07-11T04:49:42;102147.63;;;17.42;100.00
26043;BME280;13818;52.156;5.382;2022-07-11T04:52:13;102161.34;;;17.37;100.00
26043;BME280;13818;52.156;5.382;2022-07-11T04:54:39;102159.53;;;17.37;100.00
26043;BME280;13818;52.156;5.382;2022-07-11T04:57:06;102152.41;;;17.36;100.00
26043;BME280;13818;52.156;5.382;2022-07-11T04:59:32;102163.19;;;17.36;100.00
26043;BME280;13818;52.156;5.382;2022-07-11T05:01:59;102170.88;;;17.27;100.00
26043;BME280;13818;52.156;5.382;2022-07-11T05:04:27;102175.00;;;17.34;100.00
26043;BME280;13818;52.156;5.382;2022-07-11T05:06:53;102173.97;;;17.36;100.00
26043;BME280;13818;52.156;5.382;2022-07-11T05:09:20;102172.84;;;17.40;100.00
26043;BME280;13818;52.156;5.382;2022-07-11T05:11:46;102179.72;;;17.46;100.00
26043;BME280;13818;52.156;5.382;2022-07-11T05:14:13;102178.84;;;17.46;100.00
26043;BME280;13818;52.156;5.382;2022-07-11T05:16:40;102183.16;;;17.32;100.00
26043;BME280;13818;52.156;5.382;2022-07-11T05:19:06;102188.56;;;17.32;100.00
26043;BME280;13818;52.156;5.382;2022-07-11T05:21:34;102188.47;;;17.34;100.00
26043;BME280;13818;52.156;5.382;2022-07-11T05:24:00;102188.81;;;17.28;100.00
26043;BME280;13818;52.156;5.382;2022-07-11T05:26:27;102194.28;;;17.26;100.00
26043;BME280;13818;52.156;5.382;2022-07-11T05:28:53;102196.25;;;17.22;100.00
26043;BME280;13818;52.156;5.382;2022-07-11T05:31:20;102196.56;;;17.34;100.00
26043;BME280;13818;52.156;5.382;2022-07-11T05:33:46;102202.38;;;17.42;100.00
26043;BME280;13818;52.156;5.382;2022-07-11T05:36:13;102197.72;;;17.46;100.00
26043;BME280;13818;52.156;5.382;2022-07-11T05:38:41;102203.47;;;17.55;100.00
26043;BME280;13818;52.156;5.382;2022-07-11T05:41:07;102195.16;;;18.10;100.00
26043;BME280;13818;52.156;5.382;2022-07-11T05:43:34;102194.69;;;18.01;100.00
26043;BME280;13818;52.156;5.382;2022-07-11T05:46:04;102201.94;;;18.01;100.00
26043;BME280;13818;52.156;5.382;2022-07-11T05:48:30;102192.78;;;18.03;100.00
26043;BME280;13818;52.156;5.382;2022-07-11T05:50:57;102199.25;;;18.17;100.00
26043;BME280;13818;52.156;5.382;2022-07-11T05:53:23;102203.75;;;18.32;100.00
26043;BME280;13818;52.156;5.382;2022-07-11T05:55:51;102198.34;;;18.48;100.00
26043;BME280;13818;52.156;5.382;2022-07-11T05:58:18;102194.28;;;18.72;100.00
26043;BME280;13818;52.156;5.382;2022-07-11T06:00:44;102194.25;;;19.32;100.00
26043;BME280;13818;52.156;5.382;2022-07-11T06:03:10;102183.06;;;19.67;100.00
26043;BME280;13818;52.156;5.382;2022-07-11T06:05:37;102193.69;;;19.71;100.00
26043;BME280;13818;52.156;5.382;2022-07-11T06:08:04;102189.81;;;19.60;100.00
26043;BME280;13818;52.156;5.382;2022-07-11T06:10:48;102196.97;;;19.32;100.00
26043;BME280;13818;52.156;5.382;2022-07-11T06:13:16;102200.81;;;19.28;100.00
26043;BME280;13818;52.156;5.382;2022-07-11T06:15:43;102195.63;;;19.25;100.00
26043;BME280;13818;52.156;5.382;2022-07-11T06:18:09;102195.50;;;19.27;100.00
26043;BME280;13818;52.156;5.382;2022-07-11T06:20:36;102199.38;;;19.23;100.00
26043;BME280;13818;52.156;5.382;2022-07-11T06:23:02;102202.00;;;19.53;100.00
26043;BME280;13818;52.156;5.382;2022-07-11T06:25:31;102196.78;;;19.50;100.00
26043;BME280;13818;52.156;5.382;2022-07-11T06:27:57;102193.66;;;19.27;100.00
26043;BME280;13818;52.156;5.382;2022-07-11T06:30:27;102190.97;;;19.27;100.00
26043;BME280;13818;52.156;5.382;2022-07-11T06:32:56;102194.84;;;19.23;100.00
26043;BME280;13818;52.156;5.382;2022-07-11T06:35:23;102201.19;;;19.08;100.00
26043;BME280;13818;52.156;5.382;2022-07-11T06:37:49;102195.41;;;19.14;100.00
26043;BME280;13818;52.156;5.382;2022-07-11T06:40:16;102203.31;;;19.02;100.00
26043;BME280;13818;52.156;5.382;2022-07-11T06:42:44;102195.59;;;19.11;100.00
26043;BME280;13818;52.156;5.382;2022-07-11T06:45:10;102192.78;;;19.12;100.00
26043;BME280;13818;52.156;5.382;2022-07-11T06:47:38;102192.13;;;19.38;100.00
26043;BME280;13818;52.156;5.382;2022-07-11T06:50:06;102185.38;;;20.03;100.00
26043;BME280;13818;52.156;5.382;2022-07-11T06:52:33;102185.97;;;20.35;100.00
26043;BME280;13818;52.156;5.382;2022-07-11T06:55:00;102182.72;;;20.15;100.00
26043;BME280;13818;52.156;5.382;2022-07-11T06:57:27;102186.44;;;20.55;100.00
26043;BME280;13818;52.156;5.382;2022-07-11T06:59:54;102182.06;;;20.39;100.00
26043;BME280;13818;52.156;5.382;2022-07-11T07:02:21;102189.03;;;20.56;100.00
26043;BME280;13818;52.156;5.382;2022-07-11T07:04:52;102185.28;;;20.99;100.00
26043;BME280;13818;52.156;5.382;2022-07-11T07:07:19;102186.59;;;21.19;100.00
26043;BME280;13818;52.156;5.382;2022-07-11T07:09:46;102183.09;;;22.56;100.00
26043;BME280;13818;52.156;5.382;2022-07-11T07:12:13;102182.53;;;24.13;96.95
26043;BME280;13818;52.156;5.382;2022-07-11T07:14:40;102178.75;;;25.32;86.28
26043;BME280;13818;52.156;5.382;2022-07-11T07:17:07;102190.03;;;24.76;87.41
26043;BME280;13818;52.156;5.382;2022-07-11T07:19:33;102183.19;;;24.49;89.83
26043;BME280;13818;52.156;5.382;2022-07-11T07:22:02;102190.09;;;25.90;80.33
26043;BME280;13818;52.156;5.382;2022-07-11T07:24:30;102198.41;;;25.26;79.74
26043;BME280;13818;52.156;5.382;2022-07-11T07:26:56;102194.16;;;24.26;87.67
26043;BME280;13818;52.156;5.382;2022-07-11T07:29:23;102197.06;;;24.02;90.54
26043;BME280;13818;52.156;5.382;2022-07-11T07:31:51;102198.25;;;23.30;96.65
26043;BME280;13818;52.156;5.382;2022-07-11T07:34:18;102202.50;;;22.63;100.00
26043;BME280;13818;52.156;5.382;2022-07-11T07:36:44;102190.44;;;22.30;100.00
26043;BME280;13818;52.156;5.382;2022-07-11T07:39:13;102199.75;;;21.64;100.00
26043;BME280;13818;52.156;5.382;2022-07-11T07:41:39;102209.59;;;21.78;100.00
26043;BME280;13818;52.156;5.382;2022-07-11T07:44:06;102196.75;;;22.30;100.00
26043;BME280;13818;52.156;5.382;2022-07-11T07:46:33;102204.94;;;22.90;100.00
26043;BME280;13818;52.156;5.382;2022-07-11T07:48:59;102197.38;;;24.20;92.42
26043;BME280;13818;52.156;5.382;2022-07-11T07:51:26;102198.81;;;25.00;84.95
26043;BME280;13818;52.156;5.382;2022-07-11T07:53:53;102205.81;;;25.66;79.75
26043;BME280;13818;52.156;5.382;2022-07-11T07:56:21;102204.59;;;26.21;73.98
26043;BME280;13818;52.156;5.382;2022-07-11T07:58:48;102210.34;;;26.38;71.91
26043;BME280;13818;52.156;5.382;2022-07-11T08:01:16;102208.09;;;25.61;76.70
26043;BME280;13818;52.156;5.382;2022-07-11T08:04:00;102209.03;;;24.22;86.50
26043;BME280;13818;52.156;5.382;2022-07-11T08:06:27;102208.19;;;23.76;90.18
26043;BME280;13818;52.156;5.382;2022-07-11T08:08:53;102214.41;;;22.49;100.00
26043;BME280;13818;52.156;5.382;2022-07-11T08:11:21;102215.53;;;22.09;100.00
26043;BME280;13818;52.156;5.382;2022-07-11T08:13:48;102215.16;;;21.64;100.00
26043;BME280;13818;52.156;5.382;2022-07-11T08:16:14;102209.59;;;21.39;100.00
26043;BME280;13818;52.156;5.382;2022-07-11T08:18:41;102212.31;;;21.26;100.00
26043;BME280;13818;52.156;5.382;2022-07-11T08:21:07;102221.25;;;20.61;100.00
26043;BME280;13818;52.156;5.382;2022-07-11T08:23:34;102229.88;;;20.53;100.00
26043;BME280;13818;52.156;5.382;2022-07-11T08:26:01;102217.16;;;20.68;100.00
26043;BME280;13818;52.156;5.382;2022-07-11T08:28:28;102216.59;;;20.36;100.00
26043;BME280;13818;52.156;5.382;2022-07-11T08:30:57;102211.28;;;20.34;100.00
26043;BME280;13818;52.156;5.382;2022-07-11T08:33:23;102216.44;;;20.24;100.00
26043;BME280;13818;52.156;5.382;2022-07-11T08:35:50;102210.38;;;20.48;100.00
26043;BME280;13818;52.156;5.382;2022-07-11T08:38:16;102206.72;;;20.35;100.00
26043;BME280;13818;52.156;5.382;2022-07-11T08:40:43;102204.31;;;20.57;100.00
26043;BME280;13818;52.156;5.382;2022-07-11T08:43:13;102208.94;;;20.70;100.00
26043;BME280;13818;52.156;5.382;2022-07-11T08:45:42;102202.09;;;20.64;100.00
26043;BME280;13818;52.156;5.382;2022-07-11T08:48:09;102198.50;;;20.63;100.00
26043;BME280;13818;52.156;5.382;2022-07-11T08:50:36;102196.75;;;20.62;100.00
26043;BME280;13818;52.156;5.382;2022-07-11T08:53:03;102212.53;;;20.43;100.00
26043;BME280;13818;52.156;5.382;2022-07-11T08:55:30;102214.56;;;20.39;100.00
26043;BME280;13818;52.156;5.382;2022-07-11T08:57:57;102201.69;;;20.43;100.00
26043;BME280;13818;52.156;5.382;2022-07-11T09:00:24;102201.59;;;20.72;100.00
26043;BME280;13818;52.156;5.382;2022-07-11T09:02:53;102194.59;;;20.95;100.00
26043;BME280;13818;52.156;5.382;2022-07-11T09:05:19;102209.38;;;21.17;100.00
26043;BME280;13818;52.156;5.382;2022-07-11T09:07:48;102204.34;;;20.97;100.00
26043;BME280;13818;52.156;5.382;2022-07-11T09:10:16;102204.69;;;20.93;100.00
26043;BME280;13818;52.156;5.382;2022-07-11T09:12:58;102205.78;;;21.03;100.00
26043;BME280;13818;52.156;5.382;2022-07-11T09:15:36;102207.47;;;20.91;100.00
26043;BME280;13818;52.156;5.382;2022-07-11T09:18:05;102210.53;;;20.87;100.00
26043;BME280;13818;52.156;5.382;2022-07-11T09:23:31;102211.63;;;20.42;100.00
26043;BME280;13818;52.156;5.382;2022-07-11T09:26:15;102214.66;;;20.38;100.00
26043;BME280;13818;52.156;5.382;2022-07-11T09:28:41;102210.88;;;20.40;100.00
26043;BME280;13818;52.156;5.382;2022-07-11T09:31:17;102213.50;;;20.42;100.00
26043;BME280;13818;52.156;5.382;2022-07-11T09:34:16;102213.44;;;20.29;100.00
26043;BME280;13818;52.156;5.382;2022-07-11T09:36:44;102215.19;;;20.15;100.00
26043;BME280;13818;52.156;5.382;2022-07-11T09:39:14;102209.44;;;20.35;100.00
26043;BME280;13818;52.156;5.382;2022-07-11T09:41:41;102215.75;;;19.93;100.00
26043;BME280;13818;52.156;5.382;2022-07-11T09:44:10;102211.81;;;20.26;100.00
26043;BME280;13818;52.156;5.382;2022-07-11T09:46:37;102212.25;;;20.33;100.00
26043;BME280;13818;52.156;5.382;2022-07-11T09:49:04;102210.56;;;20.45;100.00
26043;BME280;13818;52.156;5.382;2022-07-11T09:51:33;102216.06;;;20.58;100.00
26043;BME280;13818;52.156;5.382;2022-07-11T09:54:01;102209.41;;;20.49;100.00
26043;BME280;13818;52.156;5.382;2022-07-11T09:56:33;102210.84;;;20.68;100.00
26043;BME280;13818;52.156;5.382;2022-07-11T09:59:01;102204.47;;;20.96;100.00
26043;BME280;13818;52.156;5.382;2022-07-11T10:01:28;102205.56;;;21.06;100.00
26043;BME280;13818;52.156;5.382;2022-07-11T10:03:55;102208.28;;;21.19;100.00
26043;BME280;13818;52.156;5.382;2022-07-11T10:06:22;102209.16;;;21.20;100.00
26043;BME280;13818;52.156;5.382;2022-07-11T10:08:50;102194.84;;;21.30;100.00
26043;BME280;13818;52.156;5.382;2022-07-11T10:11:17;102209.16;;;21.07;100.00
26043;BME280;13818;52.156;5.382;2022-07-11T10:13:44;102202.22;;;21.16;100.00
26043;BME280;13818;52.156;5.382;2022-07-11T10:16:17;102202.66;;;21.09;100.00
26043;BME280;13818;52.156;5.382;2022-07-11T10:18:53;102205.16;;;21.12;100.00
26043;BME280;13818;52.156;5.382;2022-07-11T10:21:27;102206.66;;;21.04;100.00
26043;BME280;13818;52.156;5.382;2022-07-11T10:24:01;102210.25;;;21.04;100.00
26043;BME280;13818;52.156;5.382;2022-07-11T10:26:36;102211.97;;;21.05;100.00
26043;BME280;13818;52.156;5.382;2022-07-11T10:29:09;102219.69;;;21.37;100.00
26043;BME280;13818;52.156;5.382;2022-07-11T10:31:36;102229.78;;;21.22;100.00
26043;BME280;13818;52.156;5.382;2022-07-11T10:34:04;102216.09;;;21.11;100.00
26043;BME280;13818;52.156;5.382;2022-07-11T10:36:32;102218.38;;;21.17;100.00
26043;BME280;13818;52.156;5.382;2022-07-11T10:39:15;102217.31;;;21.33;100.00
26043;BME280;13818;52.156;5.382;2022-07-11T10:41:42;102212.41;;;21.51;100.00
26043;BME280;13818;52.156;5.382;2022-07-11T10:44:09;102214.28;;;21.50;100.00
26043;BME280;13818;52.156;5.382;2022-07-11T10:46:36;102216.47;;;21.58;100.00
26043;BME280;13818;52.156;5.382;2022-07-11T10:49:16;102211.66;;;21.74;100.00
26043;BME280;13818;52.156;5.382;2022-07-11T10:51:51;102216.97;;;21.89;100.00
26043;BME280;13818;52.156;5.382;2022-07-11T10:54:26;102214.72;;;21.57;100.00
26043;BME280;13818;52.156;5.382;2022-07-11T10:57:08;102215.38;;;21.60;100.00
26043;BME280;13818;52.156;5.382;2022-07-11T10:59:54;102220.56;;;21.76;100.00
26043;BME280;13818;52.156;5.382;2022-07-11T11:02:21;102215.34;;;21.86;100.00
26043;BME280;13818;52.156;5.382;2022-07-11T11:04:49;102209.47;;;21.92;100.00
26043;BME280;13818;52.156;5.382;2022-07-11T11:07:30;102217.75;;;21.78;100.00
26043;BME280;13818;52.156;5.382;2022-07-11T11:09:58;102213.38;;;21.88;100.00
26043;BME280;13818;52.156;5.382;2022-07-11T11:15:43;102218.84;;;21.63;100.00
26043;BME280;13818;52.156;5.382;2022-07-11T11:18:32;102224.69;;;21.82;100.00
26043;BME280;13818;52.156;5.382;2022-07-11T11:21:14;102228.16;;;21.84;100.00
26043;BME280;13818;52.156;5.382;2022-07-11T11:23:41;102223.53;;;22.10;100.00
26043;BME280;13818;52.156;5.382;2022-07-11T11:26:12;102229.63;;;22.01;100.00
26043;BME280;13818;52.156;5.382;2022-07-11T11:28:54;102229.06;;;22.22;100.00
26043;BME280;13818;52.156;5.382;2022-07-11T11:31:21;102230.94;;;22.33;100.00
26043;BME280;13818;52.156;5.382;2022-07-11T11:33:48;102236.75;;;22.28;100.00
26043;BME280;13818;52.156;5.382;2022-07-11T11:36:16;102231.81;;;22.09;100.00
26043;BME280;13818;52.156;5.382;2022-07-11T11:38:43;102224.94;;;22.16;100.00
26043;BME280;13818;52.156;5.382;2022-07-11T11:41:13;102225.69;;;22.18;100.00
26043;BME280;13818;52.156;5.382;2022-07-11T11:43:43;102229.34;;;22.30;100.00
26043;BME280;13818;52.156;5.382;2022-07-11T11:46:12;102227.16;;;22.48;100.00
26043;BME280;13818;52.156;5.382;2022-07-11T11:48:39;102217.59;;;22.42;100.00
26043;BME280;13818;52.156;5.382;2022-07-11T11:51:12;102218.06;;;22.23;100.00
26043;BME280;13818;52.156;5.382;2022-07-11T11:53:40;102217.84;;;22.26;100.00
26043;BME280;13818;52.156;5.382;2022-07-11T11:56:16;102217.63;;;22.30;100.00
26043;BME280;13818;52.156;5.382;2022-07-11T11:58:43;102219.22;;;22.81;100.00
26043;BME280;13818;52.156;5.382;2022-07-11T12:01:10;102211.06;;;22.81;100.00
26043;BME280;13818;52.156;5.382;2022-07-11T12:03:47;102210.38;;;22.90;100.00
26043;BME280;13818;52.156;5.382;2022-07-11T12:06:13;102215.66;;;22.80;100.00
26043;BME280;13818;52.156;5.382;2022-07-11T12:08:40;102211.16;;;23.03;100.00
26043;BME280;13818;52.156;5.382;2022-07-11T12:11:11;102217.06;;;23.21;100.00
26043;BME280;13818;52.156;5.382;2022-07-11T12:13:40;102207.94;;;22.98;100.00
26043;BME280;13818;52.156;5.382;2022-07-11T12:16:11;102211.25;;;22.90;100.00
26043;BME280;13818;52.156;5.382;2022-07-11T12:18:56;102213.13;;;23.01;100.00
26043;BME280;13818;52.156;5.382;2022-07-11T12:21:22;102213.13;;;23.01;100.00
26043;BME280;13818;52.156;5.382;2022-07-11T12:23:49;102218.97;;;23.08;100.00
26043;BME280;13818;52.156;5.382;2022-07-11T12:26:16;102220.63;;;22.86;100.00
26043;BME280;13818;52.156;5.382;2022-07-11T12:29:03;102217.34;;;22.70;100.00
26043;BME280;13818;52.156;5.382;2022-07-11T12:31:40;102224.88;;;22.66;100.00
26043;BME280;13818;52.156;5.382;2022-07-11T12:34:06;102230.72;;;22.49;100.00
26043;BME280;13818;52.156;5.382;2022-07-11T12:36:33;102231.34;;;22.77;100.00
26043;BME280;13818;52.156;5.382;2022-07-11T12:38:59;102229.41;;;22.90;100.00
26043;BME280;13818;52.156;5.382;2022-07-11T12:41:28;102219.41;;;23.26;100.00
26043;BME280;13818;52.156;5.382;2022-07-11T12:43:55;102212.34;;;23.23;100.00
26043;BME280;13818;52.156;5.382;2022-07-11T12:46:41;102221.03;;;23.29;100.00
26043;BME280;13818;52.156;5.382;2022-07-11T12:49:10;102213.88;;;23.39;100.00
26043;BME280;13818;52.156;5.382;2022-07-11T12:51:38;102213.59;;;22.84;100.00
26043;BME280;13818;52.156;5.382;2022-07-11T12:54:07;102220.06;;;22.70;100.00